KSUS Airport (Spirit Of St Louis) Information

FAA: SUS - ICAO: KSUS

KSUS Airport Location

State Missouri
County St Louis
City St Louis
KSUS Airport is 17 miles west of St Louis, MO.
Latitude 38-39-43.6000N
Longitude 090-39-07.4000W
Elevation 463ft

KSUS Airport METARs

METAR KSUS 240754Z AUTO 00000KT 10SM CLR 09/08 A3005 RMK AO2 SLP173 T00940083 $
Altimeter 30.05"
Temperature 9.4°C (48.9°F)
Wind 0° at 0KT
Clouds Skies are clear.
Visibility 10.0mi
Time observed: 2021-09-24T07:54:00Z

KSUS Airport Details

Status Operational
Activation September 1964
Ownership Public
Usage Public
Chart ST LOUIS
ATC on-site Yes
Beacon schedule sunset-sunrise
Beacon color clear green

KSUS Airport Contacts

Owner ST LOUIS COUNTY
Owner address 18270 EDISON AVE NR 100, CHESTERFIELD, MO 63005-3704
Owner phone 636-532-2222
Manager MERRILL L. EHLERT
Manager address #3 S.E. EAGLE RIDGE DRIVE, ST JOSEPH, MO 64507
Manager phone N/A

KSUS Airport (Spirit Of St Louis) Radio Frequencies

KSUS (Airport) Radio Frequencies

UNICOM 122.95
Common traffic advisory frequency (CTAF) 124.75